createdAt,value
2022-12-11T00:01:13.762Z,1.33
2022-12-11T00:03:40.744Z,1.34
2022-12-11T00:06:07.716Z,1.34
2022-12-11T00:08:34.407Z,1.33
2022-12-11T00:11:02.792Z,1.33
2022-12-11T00:13:29.436Z,1.34
2022-12-11T00:15:58.211Z,1.32
2022-12-11T00:18:24.722Z,1.27
2022-12-11T00:20:51.347Z,1.24
2022-12-11T00:23:17.849Z,1.22
2022-12-11T00:25:44.990Z,1.23
2022-12-11T00:28:13.084Z,1.15
2022-12-11T00:30:40.732Z,1.11
2022-12-11T00:33:07.259Z,1.11
2022-12-11T00:35:33.788Z,1.11
2022-12-11T00:38:00.488Z,1.10
2022-12-11T00:40:26.981Z,1.06
2022-12-11T00:42:53.839Z,1.03
2022-12-11T00:45:21.716Z,1.03
2022-12-11T00:47:48.287Z,1.04
2022-12-11T00:50:14.869Z,1.03
2022-12-11T00:52:41.523Z,1.02
2022-12-11T00:55:08.319Z,1.01
2022-12-11T00:57:35.587Z,1.01
2022-12-11T01:00:02.274Z,1.01
2022-12-11T01:02:30.212Z,1.03
2022-12-11T01:04:56.755Z,1.03
2022-12-11T01:07:23.256Z,1.02
2022-12-11T01:10:08.515Z,1.01
2022-12-11T01:12:35.034Z,1.02
2022-12-11T01:15:01.599Z,0.99
2022-12-11T01:17:28.282Z,0.91
2022-12-11T01:19:56.171Z,0.86
2022-12-11T01:22:22.984Z,0.86
2022-12-11T01:24:49.645Z,0.84
2022-12-11T01:27:16.155Z,0.81
2022-12-11T01:29:42.790Z,0.78
2022-12-11T01:32:09.256Z,0.78
2022-12-11T01:34:35.821Z,0.79
2022-12-11T01:37:03.744Z,0.77
2022-12-11T01:39:30.786Z,0.74
2022-12-11T01:41:57.510Z,0.72
2022-12-11T01:44:42.851Z,0.70
2022-12-11T01:47:09.353Z,0.70
2022-12-11T01:49:36.261Z,0.72
2022-12-11T01:52:07.676Z,0.71
2022-12-11T01:54:34.503Z,0.69
2022-12-11T01:57:03.007Z,0.70
2022-12-11T01:59:31.406Z,0.68
2022-12-11T02:02:00.874Z,0.68
2022-12-11T02:04:28.191Z,0.69
2022-12-11T02:06:54.836Z,0.71
2022-12-11T02:09:24.464Z,0.73
2022-12-11T02:11:55.848Z,0.73
2022-12-11T02:14:28.048Z,0.77
2022-12-11T02:16:59.784Z,0.78
2022-12-11T02:19:38.007Z,0.75
2022-12-11T02:22:08.903Z,0.72
2022-12-11T02:24:46.972Z,0.72
2022-12-11T02:27:17.940Z,0.71
2022-12-11T02:29:48.363Z,0.72
2022-12-11T02:32:17.295Z,0.70
2022-12-11T02:34:46.653Z,0.69
2022-12-11T02:37:16.726Z,0.66
2022-12-11T02:39:44.379Z,0.64
2022-12-11T02:42:11.792Z,0.65
2022-12-11T02:44:39.390Z,0.62
2022-12-11T02:47:08.600Z,0.62
2022-12-11T02:49:35.428Z,0.65
2022-12-11T02:52:03.402Z,0.71
2022-12-11T02:54:31.675Z,0.75
2022-12-11T02:57:00.972Z,0.78
2022-12-11T02:59:30.793Z,0.78
2022-12-11T03:01:58.178Z,0.79
2022-12-11T03:04:26.137Z,0.78
2022-12-11T03:06:54.911Z,0.76
2022-12-11T03:09:21.449Z,0.74
2022-12-11T03:11:47.932Z,0.70
2022-12-11T03:14:14.472Z,0.69
2022-12-11T03:16:42.949Z,0.65
2022-12-11T03:19:15.693Z,0.61
2022-12-11T03:21:45.685Z,0.62
2022-12-11T03:24:19.058Z,0.59
2022-12-11T03:26:55.983Z,0.62
2022-12-11T03:29:25.586Z,0.63
2022-12-11T03:31:56.604Z,0.63
2022-12-11T03:34:25.484Z,0.64
2022-12-11T03:36:55.609Z,0.65
2022-12-11T03:39:25.798Z,0.64
2022-12-11T03:41:53.389Z,0.65
2022-12-11T03:44:20.808Z,0.61
2022-12-11T03:46:49.049Z,0.61
2022-12-11T03:49:17.726Z,0.60
2022-12-11T03:51:46.409Z,0.56
2022-12-11T03:54:14.576Z,0.58
2022-12-11T03:56:43.094Z,0.59
2022-12-11T03:59:09.727Z,0.64
2022-12-11T04:01:36.326Z,0.65
2022-12-11T04:04:02.963Z,0.66
2022-12-11T04:06:29.448Z,0.67
2022-12-11T04:08:55.931Z,0.66
2022-12-11T04:11:36.039Z,0.67
2022-12-11T04:14:21.724Z,0.68
2022-12-11T04:16:48.252Z,0.68
2022-12-11T04:19:33.713Z,0.70
2022-12-11T04:22:15.510Z,0.72
2022-12-11T04:24:42.015Z,0.70
2022-12-11T04:27:10.065Z,0.69
2022-12-11T04:29:36.594Z,0.69
2022-12-11T04:32:03.133Z,0.67
2022-12-11T04:34:30.080Z,0.68
2022-12-11T04:36:56.547Z,0.68
2022-12-11T04:39:23.053Z,0.67
2022-12-11T04:41:49.600Z,0.67
2022-12-11T04:44:17.677Z,0.65
2022-12-11T04:46:44.654Z,0.64
2022-12-11T04:49:11.345Z,0.64
2022-12-11T04:51:37.853Z,0.65
2022-12-11T04:54:04.394Z,0.65
2022-12-11T04:56:30.851Z,0.63
2022-12-11T04:58:57.329Z,0.63
2022-12-11T05:01:25.225Z,0.62
2022-12-11T05:03:51.915Z,0.59
2022-12-11T05:06:18.476Z,0.59
2022-12-11T05:08:45.370Z,0.60
2022-12-11T05:11:12.881Z,0.60
2022-12-11T05:13:39.491Z,0.60
2022-12-11T05:16:06.737Z,0.58
2022-12-11T05:18:34.988Z,0.57
2022-12-11T05:21:02.378Z,0.54
2022-12-11T05:23:29.292Z,0.51
2022-12-11T05:25:56.344Z,0.51
2022-12-11T05:28:23.371Z,0.49
2022-12-11T05:30:54.597Z,0.48
2022-12-11T05:33:21.146Z,0.45
2022-12-11T05:35:49.159Z,0.44
2022-12-11T05:38:15.694Z,0.43
2022-12-11T05:40:42.204Z,0.36
2022-12-11T05:43:08.845Z,0.36
2022-12-11T05:45:35.389Z,0.37
2022-12-11T05:48:01.925Z,0.38
2022-12-11T05:50:28.579Z,0.38
2022-12-11T05:52:56.438Z,0.40
2022-12-11T05:55:22.948Z,0.40
2022-12-11T05:57:49.734Z,0.40
2022-12-11T06:00:16.383Z,0.36
2022-12-11T06:02:43.050Z,0.32
2022-12-11T06:05:09.931Z,0.29
2022-12-11T06:07:36.550Z,0.29
2022-12-11T06:10:04.779Z,0.27
2022-12-11T06:12:32.026Z,0.25
2022-12-11T06:14:58.493Z,0.23
2022-12-11T06:17:24.991Z,0.22
2022-12-11T06:19:51.480Z,0.22
2022-12-11T06:22:18.073Z,0.27
2022-12-11T06:24:44.594Z,0.26
2022-12-11T06:27:12.440Z,0.25
2022-12-11T06:29:38.949Z,0.21
2022-12-11T06:32:05.483Z,0.20
2022-12-11T06:34:31.975Z,0.19
2022-12-11T06:36:58.474Z,0.20
2022-12-11T06:39:24.946Z,0.19
2022-12-11T06:41:51.491Z,0.18
2022-12-11T06:44:19.444Z,0.17
2022-12-11T06:46:45.891Z,0.14
2022-12-11T06:49:12.367Z,0.12
2022-12-11T06:51:39.438Z,0.06
2022-12-11T06:54:05.944Z,0.03
2022-12-11T06:56:34.155Z,0.03
2022-12-11T06:59:05.701Z,0.01
2022-12-11T07:01:35.400Z,0.04
2022-12-11T07:04:01.926Z,0.04
2022-12-11T07:06:28.917Z,0.03
2022-12-11T07:08:55.761Z,0.05
2022-12-11T07:11:24.143Z,0.11
2022-12-11T07:13:50.779Z,0.14
2022-12-11T07:16:17.907Z,0.10
2022-12-11T07:18:48.184Z,0.08
2022-12-11T07:21:14.946Z,0.06
2022-12-11T07:23:41.435Z,0.05
2022-12-11T07:26:09.564Z,0.02
2022-12-11T07:28:36.081Z,0.01
2022-12-11T07:31:04.740Z,-0.02
2022-12-11T07:33:31.336Z,-0.06
2022-12-11T07:36:02.116Z,-0.07
2022-12-11T07:38:28.693Z,-0.08
2022-12-11T07:40:55.139Z,-0.07
2022-12-11T07:43:21.681Z,-0.04
2022-12-11T07:45:48.245Z,-0.01
2022-12-11T07:48:14.863Z,0.01
2022-12-11T07:50:41.352Z,0.00
2022-12-11T07:53:09.203Z,0.03
2022-12-11T07:55:35.719Z,0.01
2022-12-11T07:58:02.197Z,0.00
2022-12-11T08:00:28.665Z,-0.01
2022-12-11T08:02:55.181Z,0.01
2022-12-11T08:05:22.617Z,0.06
2022-12-11T08:07:49.284Z,0.08
2022-12-11T08:10:17.311Z,0.10
2022-12-11T08:12:43.911Z,0.07
2022-12-11T08:15:10.964Z,0.09
2022-12-11T08:17:40.163Z,0.14
2022-12-11T08:20:08.312Z,0.14
2022-12-11T08:22:34.775Z,0.15
2022-12-11T08:25:01.436Z,0.11
2022-12-11T08:27:29.455Z,0.06
2022-12-11T08:29:56.889Z,0.04
2022-12-11T08:32:23.468Z,0.06
2022-12-11T08:34:51.076Z,0.09
2022-12-11T08:37:17.537Z,0.12
2022-12-11T08:39:44.972Z,0.14
2022-12-11T08:42:11.815Z,0.25
2022-12-11T08:44:39.664Z,0.58
2022-12-11T08:47:06.255Z,1.04
2022-12-11T08:49:34.749Z,1.51
2022-12-11T08:52:02.509Z,1.72
2022-12-11T08:54:29.311Z,1.64
2022-12-11T08:56:58.198Z,1.51
2022-12-11T08:59:25.684Z,1.45
2022-12-11T09:01:54.204Z,1.47
2022-12-11T09:04:20.689Z,1.57
2022-12-11T09:06:47.240Z,1.65
2022-12-11T09:09:14.660Z,1.91
2022-12-11T09:11:41.521Z,2.32
2022-12-11T09:14:08.419Z,2.51
2022-12-11T09:16:37.749Z,2.44
2022-12-11T09:19:07.104Z,2.34
2022-12-11T09:21:33.771Z,2.36
2022-12-11T09:24:00.871Z,2.41
2022-12-11T09:26:28.091Z,2.38
2022-12-11T09:28:54.956Z,2.33
2022-12-11T09:31:23.622Z,2.34
2022-12-11T09:33:51.141Z,2.32
2022-12-11T09:36:19.111Z,2.22
2022-12-11T09:38:45.685Z,2.05
2022-12-11T09:41:23.020Z,1.90
2022-12-11T09:43:52.177Z,1.96
2022-12-11T09:46:21.621Z,2.35
2022-12-11T09:48:53.604Z,2.88
2022-12-11T09:51:24.565Z,3.41
2022-12-11T09:53:51.798Z,3.81
2022-12-11T09:56:22.139Z,4.13
2022-12-11T09:58:54.756Z,4.42
2022-12-11T10:01:25.128Z,4.67
2022-12-11T10:04:00.867Z,4.90
2022-12-11T10:06:31.362Z,5.24
2022-12-11T10:09:03.508Z,5.57
2022-12-11T10:11:45.415Z,5.80
2022-12-11T10:14:18.266Z,6.03
2022-12-11T10:16:45.732Z,6.30
2022-12-11T10:19:16.897Z,6.55
2022-12-11T10:21:44.975Z,6.84
2022-12-11T10:24:24.351Z,7.10
2022-12-11T10:27:12.373Z,7.38
2022-12-11T10:29:39.072Z,7.67
2022-12-11T10:32:11.653Z,7.97
2022-12-11T10:34:40.270Z,8.27
2022-12-11T10:37:17.291Z,8.57
2022-12-11T10:39:44.049Z,8.83
2022-12-11T10:42:16.194Z,9.00
2022-12-11T10:44:54.781Z,9.29
2022-12-11T10:47:21.263Z,9.58
2022-12-11T10:49:52.349Z,9.89
2022-12-11T10:52:21.973Z,10.26
2022-12-11T10:54:54.717Z,10.69
2022-12-11T10:57:26.604Z,11.14
2022-12-11T10:59:53.407Z,11.49
2022-12-11T11:02:23.038Z,11.79
2022-12-11T11:04:50.066Z,12.14
2022-12-11T11:07:20.999Z,12.45
2022-12-11T11:09:47.803Z,12.72
2022-12-11T11:12:20.219Z,12.94
2022-12-11T11:14:46.707Z,13.11
2022-12-11T11:17:15.695Z,13.20
2022-12-11T11:19:45.917Z,13.35
2022-12-11T11:22:14.013Z,13.53
2022-12-11T11:24:44.205Z,13.58
2022-12-11T11:27:20.769Z,13.23
2022-12-11T11:29:52.837Z,12.42
2022-12-11T11:32:22.424Z,11.56
2022-12-11T11:34:48.976Z,10.86
2022-12-11T11:37:22.899Z,10.20
2022-12-11T11:39:52.933Z,9.40
2022-12-11T11:42:23.257Z,8.66
2022-12-11T11:44:58.589Z,7.94
2022-12-11T11:47:27.826Z,7.25
2022-12-11T11:50:00.036Z,6.67
2022-12-11T11:52:29.069Z,6.17
2022-12-11T11:55:05.829Z,5.69
2022-12-11T11:57:35.399Z,5.27
2022-12-11T12:00:09.804Z,5.06
2022-12-11T12:02:40.573Z,5.52
2022-12-11T12:05:09.945Z,6.21
2022-12-11T12:07:40.593Z,6.65
2022-12-11T12:10:14.939Z,6.91
2022-12-11T12:12:46.886Z,7.15
2022-12-11T12:15:21.868Z,7.59
2022-12-11T12:17:55.457Z,8.15
2022-12-11T12:20:30.814Z,9.18
2022-12-11T12:23:02.058Z,10.08
2022-12-11T12:25:34.864Z,10.91
2022-12-11T12:28:06.106Z,11.52
2022-12-11T12:30:40.154Z,11.65
2022-12-11T12:33:15.072Z,11.64
2022-12-11T12:35:45.125Z,11.83
2022-12-11T12:38:15.270Z,11.99
2022-12-11T12:40:51.476Z,11.57
2022-12-11T12:43:30.028Z,10.53
2022-12-11T12:46:03.924Z,9.31
2022-12-11T12:48:30.853Z,8.28
2022-12-11T12:50:57.574Z,7.45
2022-12-11T12:53:26.601Z,6.93
2022-12-11T12:55:54.915Z,6.56
2022-12-11T12:58:25.625Z,6.28
2022-12-11T13:00:52.386Z,5.98
2022-12-11T13:03:22.905Z,5.71
2022-12-11T13:05:56.701Z,5.48
2022-12-11T13:08:24.997Z,5.26
2022-12-11T13:10:58.737Z,5.01
2022-12-11T13:13:30.881Z,4.80
2022-12-11T13:16:05.721Z,4.56
2022-12-11T13:18:34.868Z,4.37
2022-12-11T13:21:01.954Z,4.22
2022-12-11T13:23:29.419Z,4.10
2022-12-11T13:25:57.283Z,3.99
2022-12-11T13:28:30.186Z,3.90
2022-12-11T13:31:08.113Z,3.82
2022-12-11T13:33:41.292Z,3.77
2022-12-11T13:36:26.504Z,3.68
2022-12-11T13:38:54.928Z,3.56
2022-12-11T13:41:21.749Z,3.44
2022-12-11T13:43:50.481Z,3.27
2022-12-11T13:46:20.921Z,3.08
2022-12-11T13:48:48.712Z,2.89
2022-12-11T13:51:17.117Z,2.72
2022-12-11T13:53:43.969Z,2.56
2022-12-11T13:56:16.299Z,2.42
2022-12-11T13:58:42.933Z,2.36
2022-12-11T14:01:12.957Z,2.32
2022-12-11T14:03:40.193Z,2.27
2022-12-11T14:06:16.436Z,2.22
2022-12-11T14:08:46.252Z,2.22
2022-12-11T14:11:18.608Z,2.17
2022-12-11T14:13:45.776Z,2.13
2022-12-11T14:16:19.590Z,2.13
2022-12-11T14:18:48.622Z,2.12
2022-12-11T14:21:18.680Z,2.13
2022-12-11T14:23:51.220Z,2.12
2022-12-11T14:26:19.823Z,2.12
2022-12-11T14:28:46.500Z,2.16
2022-12-11T14:31:15.504Z,2.17
2022-12-11T14:33:44.447Z,2.16
2022-12-11T14:36:11.293Z,2.12
2022-12-11T14:38:42.548Z,2.07
2022-12-11T14:41:13.288Z,2.00
2022-12-11T14:43:43.251Z,1.95
2022-12-11T14:46:15.716Z,1.90
2022-12-11T14:48:45.764Z,1.89
2022-12-11T14:51:14.771Z,1.86
2022-12-11T14:53:44.248Z,1.81
2022-12-11T14:56:16.667Z,1.77
2022-12-11T14:58:47.341Z,1.69
2022-12-11T15:01:22.390Z,1.62
2022-12-11T15:03:50.532Z,1.52
2022-12-11T15:06:25.866Z,1.37
2022-12-11T15:08:53.576Z,1.21
2022-12-11T15:11:20.225Z,1.11
2022-12-11T15:13:49.729Z,1.02
2022-12-11T15:16:16.475Z,0.94
2022-12-11T15:18:44.023Z,0.87
2022-12-11T15:21:13.097Z,0.78
2022-12-11T15:23:47.420Z,0.68
2022-12-11T15:26:14.089Z,0.58
2022-12-11T15:28:40.886Z,0.49
2022-12-11T15:31:22.032Z,0.36
2022-12-11T15:33:48.764Z,0.20
2022-12-11T15:36:30.292Z,0.08
2022-12-11T15:38:57.253Z,-0.05
2022-12-11T15:41:27.265Z,-0.16
2022-12-11T15:43:58.537Z,-0.27
2022-12-11T15:46:25.660Z,-0.40
2022-12-11T15:48:52.369Z,-0.57
2022-12-11T15:51:19.004Z,-0.73
2022-12-11T15:53:46.997Z,-0.89
2022-12-11T15:56:14.365Z,-1.02
2022-12-11T15:58:41.261Z,-1.15
2022-12-11T16:01:07.930Z,-1.24
2022-12-11T16:03:34.451Z,-1.30
2022-12-11T16:06:00.999Z,-1.31
2022-12-11T16:08:27.640Z,-1.31
2022-12-11T16:10:56.243Z,-1.29
2022-12-11T16:13:23.005Z,-1.26
2022-12-11T16:15:50.512Z,-1.20
2022-12-11T16:18:18.300Z,-1.15
2022-12-11T16:20:45.329Z,-1.09
2022-12-11T16:23:12.980Z,-1.08
2022-12-11T16:25:40.318Z,-1.01
2022-12-11T16:28:08.918Z,-0.97
2022-12-11T16:30:36.401Z,-0.91
2022-12-11T16:33:08.560Z,-0.84
2022-12-11T16:35:38.492Z,-0.81
2022-12-11T16:38:05.048Z,-0.81
2022-12-11T16:40:31.522Z,-0.84
2022-12-11T16:42:58.071Z,-0.85
2022-12-11T16:45:26.397Z,-0.86
2022-12-11T16:47:53.597Z,-0.86
2022-12-11T16:50:20.261Z,-0.86
2022-12-11T16:52:47.299Z,-0.87
2022-12-11T16:55:14.722Z,-0.87
2022-12-11T16:57:41.709Z,-0.90
2022-12-11T17:00:09.440Z,-0.93
2022-12-11T17:02:37.427Z,-0.97
2022-12-11T17:05:04.405Z,-0.95
2022-12-11T17:07:31.365Z,-0.93
2022-12-11T17:09:57.843Z,-0.92
2022-12-11T17:12:27.676Z,-0.92
2022-12-11T17:14:54.397Z,-0.92
2022-12-11T17:17:21.111Z,-0.94
2022-12-11T17:19:48.980Z,-0.98
2022-12-11T17:22:15.573Z,-1.05
2022-12-11T17:24:42.094Z,-1.10
2022-12-11T17:27:08.551Z,-1.12
2022-12-11T17:29:35.106Z,-1.12
2022-12-11T17:32:03.174Z,-1.13
2022-12-11T17:34:34.612Z,-1.13
2022-12-11T17:37:06.026Z,-1.13
2022-12-11T17:39:32.989Z,-1.14
2022-12-11T17:41:59.481Z,-1.12
2022-12-11T17:44:26.736Z,-1.11
2022-12-11T17:46:53.710Z,-1.08
2022-12-11T17:49:20.282Z,-1.06
2022-12-11T17:51:47.897Z,-1.03
2022-12-11T17:54:15.889Z,-1.01
2022-12-11T17:56:42.442Z,-0.99
2022-12-11T17:59:08.985Z,-0.97
2022-12-11T18:01:35.740Z,-0.96
2022-12-11T18:04:02.505Z,-0.96
2022-12-11T18:06:29.523Z,-0.95
2022-12-11T18:08:56.319Z,-0.98
2022-12-11T18:11:24.613Z,-0.99
2022-12-11T18:13:51.723Z,-0.97
2022-12-11T18:16:19.736Z,-0.95
2022-12-11T18:18:46.774Z,-0.95
2022-12-11T18:21:13.979Z,-0.93
2022-12-11T18:23:40.557Z,-0.91
2022-12-11T18:26:07.051Z,-0.89
2022-12-11T18:28:35.032Z,-0.86
2022-12-11T18:31:02.075Z,-0.88
2022-12-11T18:33:29.025Z,-0.89
2022-12-11T18:35:55.903Z,-0.88
2022-12-11T18:38:22.848Z,-0.89
2022-12-11T18:40:50.210Z,-0.89
2022-12-11T18:43:16.751Z,-0.91
2022-12-11T18:45:45.519Z,-0.93
2022-12-11T18:48:12.677Z,-0.95
2022-12-11T18:50:43.464Z,-0.97
2022-12-11T18:53:09.938Z,-0.99
2022-12-11T18:55:40.710Z,-0.99
2022-12-11T18:58:07.195Z,-0.95
2022-12-11T19:00:33.768Z,-0.96
2022-12-11T19:03:02.033Z,-0.98
2022-12-11T19:05:28.725Z,-0.99
2022-12-11T19:07:55.657Z,-0.99
2022-12-11T19:10:22.160Z,-0.99
2022-12-11T19:12:49.356Z,-0.99
2022-12-11T19:15:20.748Z,-1.04
2022-12-11T19:17:49.948Z,-1.10
2022-12-11T19:20:47.437Z,-1.18
2022-12-11T19:23:05.552Z,-1.24
2022-12-11T19:25:32.194Z,-1.23
2022-12-11T19:27:58.779Z,-1.22
2022-12-11T19:30:25.318Z,-1.23
2022-12-11T19:32:52.968Z,-1.26
2022-12-11T19:35:20.960Z,-1.30
2022-12-11T19:37:47.456Z,-1.36
2022-12-11T19:40:14.491Z,-1.41
2022-12-11T19:42:41.113Z,-1.45
2022-12-11T19:45:07.764Z,-1.48
2022-12-11T19:47:34.409Z,-1.52
2022-12-11T19:50:01.433Z,-1.50
2022-12-11T19:52:29.296Z,-1.54
2022-12-11T19:55:00.364Z,-1.58
2022-12-11T19:57:26.890Z,-1.61
2022-12-11T19:59:57.190Z,-1.64
2022-12-11T20:02:24.120Z,-1.68
2022-12-11T20:04:50.675Z,-1.72
2022-12-11T20:07:17.352Z,-1.77
2022-12-11T20:09:45.319Z,-1.82
2022-12-11T20:12:12.493Z,-1.85
2022-12-11T20:14:39.244Z,-1.89
2022-12-11T20:17:14.502Z,-1.89
2022-12-11T20:19:41.826Z,-1.88
2022-12-11T20:22:09.144Z,-1.89
2022-12-11T20:24:35.855Z,-1.89
2022-12-11T20:27:04.110Z,-1.90
2022-12-11T20:29:30.704Z,-1.94
2022-12-11T20:31:59.608Z,-1.98
2022-12-11T20:34:26.378Z,-2.02
2022-12-11T20:36:52.902Z,-2.07
2022-12-11T20:39:19.620Z,-2.10
2022-12-11T20:41:46.176Z,-2.17
2022-12-11T20:44:14.616Z,-2.20
2022-12-11T20:46:41.132Z,-2.26
2022-12-11T20:49:12.655Z,-2.32
2022-12-11T20:51:39.281Z,-2.41
2022-12-11T20:54:05.814Z,-2.53
2022-12-11T20:56:32.341Z,-2.63
2022-12-11T20:58:59.933Z,-2.71
2022-12-11T21:01:29.144Z,-2.77
2022-12-11T21:03:56.319Z,-2.79
2022-12-11T21:06:25.450Z,-2.78
2022-12-11T21:08:52.194Z,-2.77
2022-12-11T21:11:19.120Z,-2.73
2022-12-11T21:13:45.684Z,-2.73
2022-12-11T21:16:12.327Z,-2.77
2022-12-11T21:18:41.457Z,-2.88
2022-12-11T21:21:07.920Z,-2.95
2022-12-11T21:23:34.629Z,-3.02
2022-12-11T21:26:01.434Z,-3.12
2022-12-11T21:28:33.536Z,-3.23
2022-12-11T21:31:02.355Z,-3.33
2022-12-11T21:33:28.930Z,-3.41
2022-12-11T21:35:57.670Z,-3.54
2022-12-11T21:38:24.539Z,-3.73
2022-12-11T21:40:51.435Z,-3.93
2022-12-11T21:43:18.022Z,-4.09
2022-12-11T21:46:01.778Z,-4.25
2022-12-11T21:48:28.973Z,-4.38
2022-12-11T21:51:03.724Z,-4.39
2022-12-11T21:53:30.241Z,-4.35
2022-12-11T21:55:56.783Z,-4.28
2022-12-11T21:58:23.254Z,-4.20
2022-12-11T22:00:49.785Z,-4.15
2022-12-11T22:03:16.313Z,-4.11
2022-12-11T22:05:42.911Z,-4.08
2022-12-11T22:08:11.064Z,-4.08
2022-12-11T22:10:37.615Z,-4.09
2022-12-11T22:13:04.118Z,-4.14
2022-12-11T22:15:30.643Z,-4.20
2022-12-11T22:17:57.152Z,-4.36
2022-12-11T22:20:23.933Z,-4.56
2022-12-11T22:22:50.563Z,-4.68
2022-12-11T22:25:18.696Z,-4.79
2022-12-11T22:27:45.384Z,-4.83
2022-12-11T22:30:12.516Z,-4.85
2022-12-11T22:32:39.198Z,-4.87
2022-12-11T22:35:06.222Z,-4.87
2022-12-11T22:37:32.696Z,-4.84
2022-12-11T22:39:59.324Z,-4.84
2022-12-11T22:42:27.445Z,-4.94
2022-12-11T22:44:53.989Z,-5.05
2022-12-11T22:47:20.588Z,-5.13
2022-12-11T22:49:47.279Z,-5.25
2022-12-11T22:52:13.927Z,-5.35
2022-12-11T22:54:40.986Z,-5.51
2022-12-11T22:57:07.684Z,-5.60
2022-12-11T22:59:36.249Z,-5.59
2022-12-11T23:02:02.901Z,-5.54
2022-12-11T23:04:29.513Z,-5.49
2022-12-11T23:06:56.274Z,-5.45
2022-12-11T23:09:22.964Z,-5.51
2022-12-11T23:11:49.651Z,-5.59
2022-12-11T23:14:17.212Z,-5.65
2022-12-11T23:16:45.446Z,-5.70
2022-12-11T23:19:12.381Z,-5.76
2022-12-11T23:21:39.119Z,-5.83
2022-12-11T23:24:06.193Z,-5.91
2022-12-11T23:26:32.726Z,-5.98
2022-12-11T23:28:59.452Z,-5.98
2022-12-11T23:31:26.238Z,-5.93
2022-12-11T23:33:54.134Z,-5.89
2022-12-11T23:36:20.653Z,-5.88
2022-12-11T23:38:52.562Z,-5.85
2022-12-11T23:41:20.989Z,-5.83
2022-12-11T23:43:47.451Z,-5.81
2022-12-11T23:46:14.979Z,-5.85
2022-12-11T23:48:42.054Z,-5.95
2022-12-11T23:51:12.309Z,-5.97
2022-12-11T23:53:38.803Z,-5.95
2022-12-11T23:56:06.011Z,-5.96
2022-12-11T23:58:32.573Z,-5.92
